sensor_id;sensor_type;location;lat;lon;timestamp;pressure;altitude;pressure_sealevel;temperature
69415;BMP280;56608;43.530;-5.652;2023-04-24T00:00:05;101507.63;;;14.99
69415;BMP280;56608;43.530;-5.652;2023-04-24T00:01:07;101495.63;;;15.00
69415;BMP280;56608;43.530;-5.652;2023-04-24T00:02:08;101508.00;;;15.10
69415;BMP280;56608;43.530;-5.652;2023-04-24T00:03:12;101503.06;;;15.18
69415;BMP280;56608;43.530;-5.652;2023-04-24T00:04:14;101506.22;;;15.16
69415;BMP280;56608;43.530;-5.652;2023-04-24T00:05:17;101504.66;;;15.06
69415;BMP280;56608;43.530;-5.652;2023-04-24T00:06:19;101506.59;;;15.06
69415;BMP280;56608;43.530;-5.652;2023-04-24T00:07:20;101506.53;;;15.09
69415;BMP280;56608;43.530;-5.652;2023-04-24T00:08:22;101501.72;;;15.13
69415;BMP280;56608;43.530;-5.652;2023-04-24T00:09:24;101505.63;;;15.12
69415;BMP280;56608;43.530;-5.652;2023-04-24T00:10:26;101499.41;;;15.03
69415;BMP280;56608;43.530;-5.652;2023-04-24T00:11:28;101493.59;;;15.13
69415;BMP280;56608;43.530;-5.652;2023-04-24T00:12:28;101497.06;;;15.23
69415;BMP280;56608;43.530;-5.652;2023-04-24T00:13:30;101495.56;;;15.22
69415;BMP280;56608;43.530;-5.652;2023-04-24T00:14:31;101503.56;;;15.25
69415;BMP280;56608;43.530;-5.652;2023-04-24T00:15:32;101492.66;;;15.07
69415;BMP280;56608;43.530;-5.652;2023-04-24T00:16:34;101498.63;;;15.02
69415;BMP280;56608;43.530;-5.652;2023-04-24T00:17:36;101500.16;;;15.03
69415;BMP280;56608;43.530;-5.652;2023-04-24T00:18:37;101505.84;;;14.96
69415;BMP280;56608;43.530;-5.652;2023-04-24T00:19:38;101497.72;;;14.96
69415;BMP280;56608;43.530;-5.652;2023-04-24T00:20:40;101498.63;;;15.02
69415;BMP280;56608;43.530;-5.652;2023-04-24T00:21:41;101502.53;;;15.01
69415;BMP280;56608;43.530;-5.652;2023-04-24T00:22:43;101502.09;;;15.03
69415;BMP280;56608;43.530;-5.652;2023-04-24T00:23:44;101507.38;;;15.06
69415;BMP280;56608;43.530;-5.652;2023-04-24T00:24:45;101505.00;;;15.08
69415;BMP280;56608;43.530;-5.652;2023-04-24T00:25:47;101505.63;;;15.12
69415;BMP280;56608;43.530;-5.652;2023-04-24T00:26:48;101508.28;;;15.03
69415;BMP280;56608;43.530;-5.652;2023-04-24T00:27:49;101505.25;;;15.01
69415;BMP280;56608;43.530;-5.652;2023-04-24T00:28:51;101507.16;;;14.92
69415;BMP280;56608;43.530;-5.652;2023-04-24T00:29:52;101506.09;;;14.89
69415;BMP280;56608;43.530;-5.652;2023-04-24T00:30:53;101498.25;;;14.82
69415;BMP280;56608;43.530;-5.652;2023-04-24T00:31:55;101499.75;;;14.83
69415;BMP280;56608;43.530;-5.652;2023-04-24T00:32:55;101501.97;;;14.75
69415;BMP280;56608;43.530;-5.652;2023-04-24T00:33:57;101509.31;;;14.75
69415;BMP280;56608;43.530;-5.652;2023-04-24T00:34:59;101513.81;;;14.69
69415;BMP280;56608;43.530;-5.652;2023-04-24T00:36:00;101510.56;;;14.83
69415;BMP280;56608;43.530;-5.652;2023-04-24T00:37:01;101501.28;;;14.84
69415;BMP280;56608;43.530;-5.652;2023-04-24T00:38:03;101495.28;;;14.89
69415;BMP280;56608;43.530;-5.652;2023-04-24T00:39:04;101505.81;;;14.87
69415;BMP280;56608;43.530;-5.652;2023-04-24T00:40:06;101506.09;;;14.89
69415;BMP280;56608;43.530;-5.652;2023-04-24T00:41:06;101502.53;;;14.92
69415;BMP280;56608;43.530;-5.652;2023-04-24T00:42:09;101486.56;;;14.94
69415;BMP280;56608;43.530;-5.652;2023-04-24T00:43:10;101489.00;;;14.92
69415;BMP280;56608;43.530;-5.652;2023-04-24T00:44:13;101494.25;;;14.96
69415;BMP280;56608;43.530;-5.652;2023-04-24T00:45:13;101492.91;;;15.00
69415;BMP280;56608;43.530;-5.652;2023-04-24T00:46:16;101500.44;;;15.05
69415;BMP280;56608;43.530;-5.652;2023-04-24T00:47:18;101498.97;;;15.04
69415;BMP280;56608;43.530;-5.652;2023-04-24T00:48:20;101492.03;;;15.03
69415;BMP280;56608;43.530;-5.652;2023-04-24T00:49:22;101491.47;;;15.08
69415;BMP280;56608;43.530;-5.652;2023-04-24T00:50:23;101496.44;;;15.10
69415;BMP280;56608;43.530;-5.652;2023-04-24T00:51:25;101492.66;;;15.07
69415;BMP280;56608;43.530;-5.652;2023-04-24T00:52:28;101480.31;;;15.06
69415;BMP280;56608;43.530;-5.652;2023-04-24T00:53:32;101485.63;;;15.10
69415;BMP280;56608;43.530;-5.652;2023-04-24T00:54:33;101487.87;;;15.11
69415;BMP280;56608;43.530;-5.652;2023-04-24T00:55:35;101484.56;;;15.07
69415;BMP280;56608;43.530;-5.652;2023-04-24T00:56:38;101483.16;;;15.03
69415;BMP280;56608;43.530;-5.652;2023-04-24T00:57:41;101480.31;;;15.06
69415;BMP280;56608;43.530;-5.652;2023-04-24T00:58:43;101479.56;;;15.06
69415;BMP280;56608;43.530;-5.652;2023-04-24T00:59:44;101486.50;;;15.07
69415;BMP280;56608;43.530;-5.652;2023-04-24T01:00:47;101488.13;;;15.04
69415;BMP280;56608;43.530;-5.652;2023-04-24T01:01:50;101487.94;;;14.99
69415;BMP280;56608;43.530;-5.652;2023-04-24T01:02:52;101493.19;;;14.93
69415;BMP280;56608;43.530;-5.652;2023-04-24T01:03:55;101492.62;;;14.98
69415;BMP280;56608;43.530;-5.652;2023-04-24T01:04:56;101490.03;;;14.95
69415;BMP280;56608;43.530;-5.652;2023-04-24T01:05:58;101491.06;;;14.88
69415;BMP280;56608;43.530;-5.652;2023-04-24T01:07:00;101482.34;;;14.93
69415;BMP280;56608;43.530;-5.652;2023-04-24T01:08:00;101488.78;;;15.08
69415;BMP280;56608;43.530;-5.652;2023-04-24T01:09:03;101479.12;;;15.07
69415;BMP280;56608;43.530;-5.652;2023-04-24T01:10:05;101474.91;;;15.06
69415;BMP280;56608;43.530;-5.652;2023-04-24T01:11:07;101479.75;;;15.11
69415;BMP280;56608;43.530;-5.652;2023-04-24T01:12:09;101473.44;;;15.14
69415;BMP280;56608;43.530;-5.652;2023-04-24T01:13:09;101479.78;;;15.20
69415;BMP280;56608;43.530;-5.652;2023-04-24T01:14:10;101480.38;;;15.15
69415;BMP280;56608;43.530;-5.652;2023-04-24T01:15:12;101477.34;;;15.13
69415;BMP280;56608;43.530;-5.652;2023-04-24T01:16:17;101480.66;;;15.08
69415;BMP280;56608;43.530;-5.652;2023-04-24T01:17:18;101480.31;;;15.06
69415;BMP280;56608;43.530;-5.652;2023-04-24T01:18:20;101480.31;;;15.06
69415;BMP280;56608;43.530;-5.652;2023-04-24T01:19:23;101473.38;;;15.05
69415;BMP280;56608;43.530;-5.652;2023-04-24T01:20:24;101474.66;;;15.13
69415;BMP280;56608;43.530;-5.652;2023-04-24T01:21:29;101482.00;;;15.13
69415;BMP280;56608;43.530;-5.652;2023-04-24T01:22:33;101474.03;;;15.09
69415;BMP280;56608;43.530;-5.652;2023-04-24T01:23:35;101476.44;;;15.07
69415;BMP280;56608;43.530;-5.652;2023-04-24T01:24:37;101479.12;;;15.07
69415;BMP280;56608;43.530;-5.652;2023-04-24T01:25:38;101473.38;;;15.05
69415;BMP280;56608;43.530;-5.652;2023-04-24T01:26:40;101473.72;;;15.07
69415;BMP280;56608;43.530;-5.652;2023-04-24T01:27:41;101466.50;;;15.04
69415;BMP280;56608;43.530;-5.652;2023-04-24T01:28:43;101474.28;;;15.02
69415;BMP280;56608;43.530;-5.652;2023-04-24T01:29:44;101473.97;;;15.00
69415;BMP280;56608;43.530;-5.652;2023-04-24T01:30:46;101471.16;;;15.04
69415;BMP280;56608;43.530;-5.652;2023-04-24T01:31:47;101473.09;;;15.03
69415;BMP280;56608;43.530;-5.652;2023-04-24T01:32:49;101474.28;;;15.02
69415;BMP280;56608;43.530;-5.652;2023-04-24T01:33:50;101472.19;;;15.06
69415;BMP280;56608;43.530;-5.652;2023-04-24T01:34:52;101472.53;;;15.08
69415;BMP280;56608;43.530;-5.652;2023-04-24T01:35:52;101471.16;;;15.04
69415;BMP280;56608;43.530;-5.652;2023-04-24T01:36:54;101473.84;;;15.04
69415;BMP280;56608;43.530;-5.652;2023-04-24T01:37:57;101467.19;;;14.96
69415;BMP280;56608;43.530;-5.652;2023-04-24T01:38:59;101463.59;;;14.99
69415;BMP280;56608;43.530;-5.652;2023-04-24T01:39:59;101469.91;;;14.96
69415;BMP280;56608;43.530;-5.652;2023-04-24T01:41:02;101462.22;;;14.94
69415;BMP280;56608;43.530;-5.652;2023-04-24T01:42:04;101459.06;;;14.96
69415;BMP280;56608;43.530;-5.652;2023-04-24T01:43:06;101457.13;;;14.96
69415;BMP280;56608;43.530;-5.652;2023-04-24T01:44:08;101450.37;;;15.01
69415;BMP280;56608;43.530;-5.652;2023-04-24T01:45:11;101448.69;;;14.94
69415;BMP280;56608;43.530;-5.652;2023-04-24T01:46:13;101452.03;;;14.98
69415;BMP280;56608;43.530;-5.652;2023-04-24T01:47:15;101453.50;;;14.99
69415;BMP280;56608;43.530;-5.652;2023-04-24T01:48:16;101455.66;;;15.04
69415;BMP280;56608;43.530;-5.652;2023-04-24T01:49:18;101447.22;;;15.02
69415;BMP280;56608;43.530;-5.652;2023-04-24T01:50:19;101449.50;;;15.04
69415;BMP280;56608;43.530;-5.652;2023-04-24T01:51:20;101448.09;;;14.99
69415;BMP280;56608;43.530;-5.652;2023-04-24T01:52:22;101443.59;;;14.96
69415;BMP280;56608;43.530;-5.652;2023-04-24T01:53:23;101438.19;;;14.96
69415;BMP280;56608;43.530;-5.652;2023-04-24T01:54:25;101438.78;;;15.00
69415;BMP280;56608;43.530;-5.652;2023-04-24T01:55:27;101439.69;;;14.97
69415;BMP280;56608;43.530;-5.652;2023-04-24T01:56:33;101437.28;;;14.99
69415;BMP280;56608;43.530;-5.652;2023-04-24T01:57:35;101434.28;;;14.97
69415;BMP280;56608;43.530;-5.652;2023-04-24T01:58:35;101439.44;;;15.04
69415;BMP280;56608;43.530;-5.652;2023-04-24T01:59:37;101434.44;;;15.03
69415;BMP280;56608;43.530;-5.652;2023-04-24T02:00:39;101438.78;;;15.00
69415;BMP280;56608;43.530;-5.652;2023-04-24T02:01:40;101432.94;;;14.93
69415;BMP280;56608;43.530;-5.652;2023-04-24T02:02:42;101428.72;;;14.92
69415;BMP280;56608;43.530;-5.652;2023-04-24T02:03:43;101436.25;;;14.97
69415;BMP280;56608;43.530;-5.652;2023-04-24T02:04:44;101430.66;;;14.91
69415;BMP280;56608;43.530;-5.652;2023-04-24T02:05:46;101433.37;;;14.91
69415;BMP280;56608;43.530;-5.652;2023-04-24T02:06:47;101431.84;;;14.90
69415;BMP280;56608;43.530;-5.652;2023-04-24T02:07:49;101435.75;;;14.89
69415;BMP280;56608;43.530;-5.652;2023-04-24T02:08:51;101432.28;;;14.89
69415;BMP280;56608;43.530;-5.652;2023-04-24T02:09:51;101433.03;;;14.89
69415;BMP280;56608;43.530;-5.652;2023-04-24T02:10:53;101433.75;;;14.80
69415;BMP280;56608;43.530;-5.652;2023-04-24T02:11:55;101428.78;;;14.79
69415;BMP280;56608;43.530;-5.652;2023-04-24T02:12:57;101421.25;;;14.74
69415;BMP280;56608;43.530;-5.652;2023-04-24T02:14:00;101428.94;;;14.75
69415;BMP280;56608;43.530;-5.652;2023-04-24T02:15:02;101431.00;;;14.71
69415;BMP280;56608;43.530;-5.652;2023-04-24T02:16:04;101428.31;;;14.71
69415;BMP280;56608;43.530;-5.652;2023-04-24T02:17:05;101425.16;;;14.73
69415;BMP280;56608;43.530;-5.652;2023-04-24T02:18:07;101432.94;;;14.71
69415;BMP280;56608;43.530;-5.652;2023-04-24T02:19:09;101426.78;;;14.70
69415;BMP280;56608;43.530;-5.652;2023-04-24T02:20:11;101422.12;;;14.71
69415;BMP280;56608;43.530;-5.652;2023-04-24T02:21:12;101424.25;;;14.76
69415;BMP280;56608;43.530;-5.652;2023-04-24T02:22:13;101428.78;;;14.79
69415;BMP280;56608;43.530;-5.652;2023-04-24T02:23:15;101428.66;;;14.82
69415;BMP280;56608;43.530;-5.652;2023-04-24T02:24:17;101427.72;;;14.76
69415;BMP280;56608;43.530;-5.652;2023-04-24T02:25:18;101431.47;;;14.70
69415;BMP280;56608;43.530;-5.652;2023-04-24T02:26:19;101436.25;;;14.66
69415;BMP280;56608;43.530;-5.652;2023-04-24T02:27:20;101423.34;;;14.70
69415;BMP280;56608;43.530;-5.652;2023-04-24T02:28:22;101428.00;;;14.69
69415;BMP280;56608;43.530;-5.652;2023-04-24T02:29:23;101433.59;;;14.75
69415;BMP280;56608;43.530;-5.652;2023-04-24T02:30:25;101428.47;;;14.77
69415;BMP280;56608;43.530;-5.652;2023-04-24T02:31:26;101431.94;;;14.77
69415;BMP280;56608;43.530;-5.652;2023-04-24T02:32:28;101429.97;;;14.69
69415;BMP280;56608;43.530;-5.652;2023-04-24T02:33:29;101421.69;;;14.72
69415;BMP280;56608;43.530;-5.652;2023-04-24T02:34:31;101422.63;;;14.78
69415;BMP280;56608;43.530;-5.652;2023-04-24T02:35:32;101416.13;;;14.76
69415;BMP280;56608;43.530;-5.652;2023-04-24T02:36:34;101415.09;;;14.73
69415;BMP280;56608;43.530;-5.652;2023-04-24T02:37:34;101419.75;;;14.73
69415;BMP280;56608;43.530;-5.652;2023-04-24T02:38:36;101404.78;;;14.81
69415;BMP280;56608;43.530;-5.652;2023-04-24T02:39:37;101408.84;;;14.85
69415;BMP280;56608;43.530;-5.652;2023-04-24T02:40:39;101417.72;;;14.86
69415;BMP280;56608;43.530;-5.652;2023-04-24T02:41:40;101413.50;;;14.85
69415;BMP280;56608;43.530;-5.652;2023-04-24T02:42:42;101414.13;;;14.89
69415;BMP280;56608;43.530;-5.652;2023-04-24T02:43:43;101414.56;;;14.87
69415;BMP280;56608;43.530;-5.652;2023-04-24T02:44:45;101413.19;;;14.83
69415;BMP280;56608;43.530;-5.652;2023-04-24T02:45:46;101414.38;;;14.82
69415;BMP280;56608;43.530;-5.652;2023-04-24T02:46:48;101411.38;;;14.80
69415;BMP280;56608;43.530;-5.652;2023-04-24T02:47:49;101419.25;;;14.87
69415;BMP280;56608;43.530;-5.652;2023-04-24T02:48:50;101403.72;;;14.87
69415;BMP280;56608;43.530;-5.652;2023-04-24T02:49:52;101412.00;;;14.93
69415;BMP280;56608;43.530;-5.652;2023-04-24T02:50:53;101418.19;;;14.94
69415;BMP280;56608;43.530;-5.652;2023-04-24T02:51:54;101413.41;;;14.98
69415;BMP280;56608;43.530;-5.652;2023-04-24T02:52:56;101410.81;;;14.94
69415;BMP280;56608;43.530;-5.652;2023-04-24T02:53:57;101408.44;;;14.96
69415;BMP280;56608;43.530;-5.652;2023-04-24T02:54:59;101401.19;;;14.93
69415;BMP280;56608;43.530;-5.652;2023-04-24T02:56:00;101405.12;;;14.92
69415;BMP280;56608;43.530;-5.652;2023-04-24T02:57:01;101395.78;;;14.93
69415;BMP280;56608;43.530;-5.652;2023-04-24T02:58:03;101402.56;;;14.98
69415;BMP280;56608;43.530;-5.652;2023-04-24T02:59:05;101405.41;;;14.94
69415;BMP280;56608;43.530;-5.652;2023-04-24T03:00:07;101402.41;;;14.92
69415;BMP280;56608;43.530;-5.652;2023-04-24T03:01:08;101409.03;;;14.91
69415;BMP280;56608;43.530;-5.652;2023-04-24T03:02:11;101407.66;;;14.96
69415;BMP280;56608;43.530;-5.652;2023-04-24T03:03:12;101408.09;;;14.94
69415;BMP280;56608;43.530;-5.652;2023-04-24T03:04:14;101404.38;;;14.92
69415;BMP280;56608;43.530;-5.652;2023-04-24T03:05:16;101399.84;;;14.89
69415;BMP280;56608;43.530;-5.652;2023-04-24T03:06:18;101401.50;;;14.86
69415;BMP280;56608;43.530;-5.652;2023-04-24T03:07:19;101401.78;;;14.88
69415;BMP280;56608;43.530;-5.652;2023-04-24T03:08:21;101398.31;;;14.87
69415;BMP280;56608;43.530;-5.652;2023-04-24T03:09:23;101388.25;;;14.88
69415;BMP280;56608;43.530;-5.652;2023-04-24T03:10:24;101400.31;;;14.96
69415;BMP280;56608;43.530;-5.652;2023-04-24T03:11:26;101408.75;;;14.98
69415;BMP280;56608;43.530;-5.652;2023-04-24T03:12:27;101403.59;;;14.91
69415;BMP280;56608;43.530;-5.652;2023-04-24T03:13:28;101404.62;;;14.84
69415;BMP280;56608;43.530;-5.652;2023-04-24T03:14:29;101411.69;;;14.82
69415;BMP280;56608;43.530;-5.652;2023-04-24T03:15:32;101407.50;;;14.81
69415;BMP280;56608;43.530;-5.652;2023-04-24T03:16:33;101404.78;;;14.81
69415;BMP280;56608;43.530;-5.652;2023-04-24T03:17:35;101408.66;;;14.80
69415;BMP280;56608;43.530;-5.652;2023-04-24T03:18:37;101403.25;;;14.80
69415;BMP280;56608;43.530;-5.652;2023-04-24T03:19:39;101399.19;;;14.75
69415;BMP280;56608;43.530;-5.652;2023-04-24T03:20:40;101401.12;;;14.75
69415;BMP280;56608;43.530;-5.652;2023-04-24T03:21:42;101400.66;;;14.76
69415;BMP280;56608;43.530;-5.652;2023-04-24T03:22:43;101398.28;;;14.78
69415;BMP280;56608;43.530;-5.652;2023-04-24T03:23:45;101395.44;;;14.82
69415;BMP280;56608;43.530;-5.652;2023-04-24T03:24:45;101399.06;;;14.88
69415;BMP280;56608;43.530;-5.652;2023-04-24T03:25:47;101397.75;;;14.93
69415;BMP280;56608;43.530;-5.652;2023-04-24T03:26:49;101405.12;;;14.92
69415;BMP280;56608;43.530;-5.652;2023-04-24T03:27:50;101401.03;;;14.87
69415;BMP280;56608;43.530;-5.652;2023-04-24T03:28:52;101398.78;;;14.86
69415;BMP280;56608;43.530;-5.652;2023-04-24T03:29:53;101401.34;;;14.90
69415;BMP280;56608;43.530;-5.652;2023-04-24T03:30:56;101399.37;;;14.81
69415;BMP280;56608;43.530;-5.652;2023-04-24T03:31:57;101402.50;;;14.79
69415;BMP280;56608;43.530;-5.652;2023-04-24T03:32:59;101398.59;;;14.80
69415;BMP280;56608;43.530;-5.652;2023-04-24T03:34:00;101400.22;;;14.78
69415;BMP280;56608;43.530;-5.652;2023-04-24T03:35:02;101397.34;;;14.72
69415;BMP280;56608;43.530;-5.652;2023-04-24T03:36:04;101395.09;;;14.71
69415;BMP280;56608;43.530;-5.652;2023-04-24T03:37:06;101399.00;;;14.70
69415;BMP280;56608;43.530;-5.652;2023-04-24T03:38:07;101408.59;;;14.71
69415;BMP280;56608;43.530;-5.652;2023-04-24T03:39:09;101401.41;;;14.77
69415;BMP280;56608;43.530;-5.652;2023-04-24T03:40:09;101404.59;;;14.75
69415;BMP280;56608;43.530;-5.652;2023-04-24T03:41:11;101401.12;;;14.75
69415;BMP280;56608;43.530;-5.652;2023-04-24T03:42:12;101392.97;;;14.66
69415;BMP280;56608;43.530;-5.652;2023-04-24T03:43:14;101391.34;;;14.68
69415;BMP280;56608;43.530;-5.652;2023-04-24T03:44:15;101393.78;;;14.75
69415;BMP280;56608;43.530;-5.652;2023-04-24T03:45:17;101389.72;;;14.80
69415;BMP280;56608;43.530;-5.652;2023-04-24T03:46:18;101391.25;;;14.81
69415;BMP280;56608;43.530;-5.652;2023-04-24T03:47:19;101386.69;;;14.69
69415;BMP280;56608;43.530;-5.652;2023-04-24T03:48:21;101393.72;;;14.66
69415;BMP280;56608;43.530;-5.652;2023-04-24T03:49:22;101394.31;;;14.61
69415;BMP280;56608;43.530;-5.652;2023-04-24T03:50:23;101391.28;;;14.59
69415;BMP280;56608;43.530;-5.652;2023-04-24T03:51:24;101396.50;;;14.54
69415;BMP280;56608;43.530;-5.652;2023-04-24T03:52:26;101400.41;;;14.53
69415;BMP280;56608;43.530;-5.652;2023-04-24T03:53:27;101396.91;;;14.43
69415;BMP280;56608;43.530;-5.652;2023-04-24T03:54:29;101396.31;;;14.39
69415;BMP280;56608;43.530;-5.652;2023-04-24T03:55:29;101404.59;;;14.44
69415;BMP280;56608;43.530;-5.652;2023-04-24T03:56:31;101401.56;;;14.42
69415;BMP280;56608;43.530;-5.652;2023-04-24T03:57:33;101398.25;;;14.38
69415;BMP280;56608;43.530;-5.652;2023-04-24T03:58:34;101405.03;;;14.43
69415;BMP280;56608;43.530;-5.652;2023-04-24T03:59:35;101406.69;;;14.50
69415;BMP280;56608;43.530;-5.652;2023-04-24T04:00:36;101408.66;;;14.49
69415;BMP280;56608;43.530;-5.652;2023-04-24T04:01:38;101402.13;;;14.37
69415;BMP280;56608;43.530;-5.652;2023-04-24T04:02:40;101400.94;;;14.38
69415;BMP280;56608;43.530;-5.652;2023-04-24T04:03:42;101411.75;;;14.38
69415;BMP280;56608;43.530;-5.652;2023-04-24T04:04:43;101404.41;;;14.39
69415;BMP280;56608;43.530;-5.652;2023-04-24T04:05:45;101405.59;;;14.38
69415;BMP280;56608;43.530;-5.652;2023-04-24T04:06:46;101415.34;;;14.35
69415;BMP280;56608;43.530;-5.652;2023-04-24T04:07:48;101407.22;;;14.35
69415;BMP280;56608;43.530;-5.652;2023-04-24T04:08:49;101396.59;;;14.41
69415;BMP280;56608;43.530;-5.652;2023-04-24T04:09:50;101398.25;;;14.38
69415;BMP280;56608;43.530;-5.652;2023-04-24T04:10:51;101402.13;;;14.37
69415;BMP280;56608;43.530;-5.652;2023-04-24T04:11:53;101397.16;;;14.36
69415;BMP280;56608;43.530;-5.652;2023-04-24T04:12:54;101400.69;;;14.45
69415;BMP280;56608;43.530;-5.652;2023-04-24T04:13:56;101394.38;;;14.48
69415;BMP280;56608;43.530;-5.652;2023-04-24T04:14:56;101398.28;;;14.47
69415;BMP280;56608;43.530;-5.652;2023-04-24T04:15:58;101390.75;;;14.42
69415;BMP280;56608;43.530;-5.652;2023-04-24T04:17:00;101392.69;;;14.42
69415;BMP280;56608;43.530;-5.652;2023-04-24T04:18:01;101382.19;;;14.44
69415;BMP280;56608;43.530;-5.652;2023-04-24T04:19:02;101380.28;;;14.54
69415;BMP280;56608;43.530;-5.652;2023-04-24T04:20:05;101380.00;;;14.52
69415;BMP280;56608;43.530;-5.652;2023-04-24T04:21:10;101388.28;;;14.57
69415;BMP280;56608;43.530;-5.652;2023-04-24T04:22:12;101383.25;;;14.46
69415;BMP280;56608;43.530;-5.652;2023-04-24T04:23:13;101382.06;;;14.47
69415;BMP280;56608;43.530;-5.652;2023-04-24T04:24:15;101379.19;;;14.42
69415;BMP280;56608;43.530;-5.652;2023-04-24T04:25:16;101375.69;;;14.32
69415;BMP280;56608;43.530;-5.652;2023-04-24T04:26:20;101378.94;;;14.27
69415;BMP280;56608;43.530;-5.652;2023-04-24T04:27:22;101377.00;;;14.28
69415;BMP280;56608;43.530;-5.652;2023-04-24T04:28:23;101384.34;;;14.27
69415;BMP280;56608;43.530;-5.652;2023-04-24T04:29:25;101377.62;;;14.32
69415;BMP280;56608;43.530;-5.652;2023-04-24T04:30:27;101372.22;;;14.32
69415;BMP280;56608;43.530;-5.652;2023-04-24T04:31:30;101373.88;;;14.29
69415;BMP280;56608;43.530;-5.652;2023-04-24T04:32:32;101380.19;;;14.35
69415;BMP280;56608;43.530;-5.652;2023-04-24T04:33:34;101376.44;;;14.33
69415;BMP280;56608;43.530;-5.652;2023-04-24T04:34:37;101373.28;;;14.34
69415;BMP280;56608;43.530;-5.652;2023-04-24T04:35:38;101378.12;;;14.39
69415;BMP280;56608;43.530;-5.652;2023-04-24T04:36:41;101392.25;;;14.43
69415;BMP280;56608;43.530;-5.652;2023-04-24T04:37:44;101376.66;;;14.47
69415;BMP280;56608;43.530;-5.652;2023-04-24T04:38:45;101382.06;;;14.47
69415;BMP280;56608;43.530;-5.652;2023-04-24T04:39:47;101389.72;;;14.49
69415;BMP280;56608;43.530;-5.652;2023-04-24T04:40:48;101381.19;;;14.51
69415;BMP280;56608;43.530;-5.652;2023-04-24T04:41:49;101378.75;;;14.53
69415;BMP280;56608;43.530;-5.652;2023-04-24T04:42:51;101385.69;;;14.54
69415;BMP280;56608;43.530;-5.652;2023-04-24T04:43:54;101380.94;;;14.58
69415;BMP280;56608;43.530;-5.652;2023-04-24T04:44:55;101389.94;;;14.64
69415;BMP280;56608;43.530;-5.652;2023-04-24T04:45:58;101382.31;;;14.62
69415;BMP280;56608;43.530;-5.652;2023-04-24T04:46:58;101383.06;;;14.63
69415;BMP280;56608;43.530;-5.652;2023-04-24T04:48:01;101389.66;;;14.62
69415;BMP280;56608;43.530;-5.652;2023-04-24T04:49:04;101383.94;;;14.60
69415;BMP280;56608;43.530;-5.652;2023-04-24T04:50:06;101386.94;;;14.62
69415;BMP280;56608;43.530;-5.652;2023-04-24T04:51:06;101389.50;;;14.65
69415;BMP280;56608;43.530;-5.652;2023-04-24T04:52:09;101382.78;;;14.70
69415;BMP280;56608;43.530;-5.652;2023-04-24T04:53:10;101379.50;;;14.75
69415;BMP280;56608;43.530;-5.652;2023-04-24T04:54:12;101384.75;;;14.78
69415;BMP280;56608;43.530;-5.652;2023-04-24T04:55:13;101381.59;;;14.80
69415;BMP280;56608;43.530;-5.652;2023-04-24T04:56:15;101373.50;;;14.80
69415;BMP280;56608;43.530;-5.652;2023-04-24T04:57:17;101377.75;;;14.81
69415;BMP280;56608;43.530;-5.652;2023-04-24T04:58:18;101379.22;;;14.82
69415;BMP280;56608;43.530;-5.652;2023-04-24T04:59:20;101381.47;;;14.83
69415;BMP280;56608;43.530;-5.652;2023-04-24T05:00:22;101385.25;;;14.86
69415;BMP280;56608;43.530;-5.652;2023-04-24T05:01:26;101394.56;;;14.85
69415;BMP280;56608;43.530;-5.652;2023-04-24T05:02:28;101389.16;;;14.85
69415;BMP280;56608;43.530;-5.652;2023-04-24T05:03:30;101384.62;;;14.82
69415;BMP280;56608;43.530;-5.652;2023-04-24T05:04:31;101388.22;;;14.79
69415;BMP280;56608;43.530;-5.652;2023-04-24T05:05:32;101394.81;;;14.78
69415;BMP280;56608;43.530;-5.652;2023-04-24T05:06:34;101386.09;;;14.74
69415;BMP280;56608;43.530;-5.652;2023-04-24T05:07:35;101394.97;;;14.74
69415;BMP280;56608;43.530;-5.652;2023-04-24T05:08:36;101389.09;;;14.76
69415;BMP280;56608;43.530;-5.652;2023-04-24T05:09:37;101386.84;;;14.74
69415;BMP280;56608;43.530;-5.652;2023-04-24T05:10:39;101392.09;;;14.78
69415;BMP280;56608;43.530;-5.652;2023-04-24T05:11:41;101392.87;;;14.78
69415;BMP280;56608;43.530;-5.652;2023-04-24T05:12:42;101390.91;;;14.79
69415;BMP280;56608;43.530;-5.652;2023-04-24T05:13:43;101396.53;;;14.84
69415;BMP280;56608;43.530;-5.652;2023-04-24T05:14:44;101398.47;;;14.84
69415;BMP280;56608;43.530;-5.652;2023-04-24T05:15:46;101393.37;;;14.86
69415;BMP280;56608;43.530;-5.652;2023-04-24T05:16:47;101393.97;;;14.90
69415;BMP280;56608;43.530;-5.652;2023-04-24T05:17:49;101395.06;;;14.93
69415;BMP280;56608;43.530;-5.652;2023-04-24T05:18:50;101400.00;;;14.94
69415;BMP280;56608;43.530;-5.652;2023-04-24T05:19:52;101399.87;;;14.98
69415;BMP280;56608;43.530;-5.652;2023-04-24T05:20:53;101398.97;;;15.01
69415;BMP280;56608;43.530;-5.652;2023-04-24T05:21:55;101406.31;;;15.00
69415;BMP280;56608;43.530;-5.652;2023-04-24T05:22:56;101407.84;;;15.01
69415;BMP280;56608;43.530;-5.652;2023-04-24T05:23:57;101406.31;;;15.00
69415;BMP280;56608;43.530;-5.652;2023-04-24T05:24:59;101405.12;;;15.01
69415;BMP280;56608;43.530;-5.652;2023-04-24T05:26:00;101403.94;;;15.02
69415;BMP280;56608;43.530;-5.652;2023-04-24T05:27:02;101399.28;;;15.03
69415;BMP280;56608;43.530;-5.652;2023-04-24T05:28:05;101410.09;;;15.03
69415;BMP280;56608;43.530;-5.652;2023-04-24T05:29:07;101410.37;;;15.05
69415;BMP280;56608;43.530;-5.652;2023-04-24T05:30:08;101414.59;;;15.06
69415;BMP280;56608;43.530;-5.652;2023-04-24T05:31:10;101420.78;;;15.06
69415;BMP280;56608;43.530;-5.652;2023-04-24T05:32:13;101418.06;;;15.06
69415;BMP280;56608;43.530;-5.652;2023-04-24T05:33:14;101415.69;;;15.08
69415;BMP280;56608;43.530;-5.652;2023-04-24T05:34:16;101412.06;;;15.02
69415;BMP280;56608;43.530;-5.652;2023-04-24T05:35:17;101422.44;;;15.04
69415;BMP280;56608;43.530;-5.652;2023-04-24T05:36:19;101428.72;;;15.01
69415;BMP280;56608;43.530;-5.652;2023-04-24T05:37:21;101424.06;;;15.01
69415;BMP280;56608;43.530;-5.652;2023-04-24T05:38:23;101420.28;;;14.99
69415;BMP280;56608;43.530;-5.652;2023-04-24T05:39:24;101428.72;;;15.01
69415;BMP280;56608;43.530;-5.652;2023-04-24T05:40:25;101444.84;;;15.04
69415;BMP280;56608;43.530;-5.652;2023-04-24T05:41:27;101433.13;;;15.07
69415;BMP280;56608;43.530;-5.652;2023-04-24T05:42:28;101437.00;;;15.06
69415;BMP280;56608;43.530;-5.652;2023-04-24T05:43:29;101431.19;;;15.08
69415;BMP280;56608;43.530;-5.652;2023-04-24T05:44:31;101440.34;;;15.10